Time;durP1;ratioP1;P1;durP2;ratioP2;P2;SDS_P1;SDS_P2;PMS_P1;PMS_P2;Temp;Humidity;BMP_temperature;BMP_pressure;BME280_temperature;BME280_humidity;BME280_pressure;Samples;Min_cycle;Max_cycle;Signal;HPM_P1;HPM_P2
2023/02/02 00:01:29;;;;;;;5.47;2.10;;;8.30;39.10;;;;;;10451811;28;20748;-80
2023/02/02 00:06:33;;;;;;;6.63;2.07;;;8.30;38.90;;;;;;10448553;28;20225;-80
2023/02/02 00:11:36;;;;;;;6.53;2.30;;;8.30;39.00;;;;;;10452174;28;20233;-80
2023/02/02 00:16:42;;;;;;;3.70;2.00;;;8.30;39.10;;;;;;10447536;28;20216;-80
2023/02/02 00:21:46;;;;;;;2.83;1.63;;;8.30;39.00;;;;;;10449205;28;20752;-80
2023/02/02 00:26:52;;;;;;;4.33;2.00;;;8.30;39.00;;;;;;10450426;28;20275;-80
2023/02/02 00:31:57;;;;;;;4.93;2.40;;;8.30;39.70;;;;;;10449719;28;20221;-80
2023/02/02 00:37:00;;;;;;;5.47;2.20;;;8.30;39.20;;;;;;10448690;28;20221;-80
2023/02/02 00:42:04;;;;;;;5.23;2.10;;;8.30;39.30;;;;;;10457188;28;20236;-80
2023/02/02 00:47:08;;;;;;;5.77;2.27;;;8.30;39.30;;;;;;10460154;28;20220;-80
2023/02/02 00:52:11;;;;;;;4.60;2.00;;;8.30;39.50;;;;;;10457578;28;20229;-80
2023/02/02 00:57:15;;;;;;;5.20;2.10;;;8.30;39.40;;;;;;10453539;28;20271;-80
2023/02/02 01:02:20;;;;;;;5.57;2.07;;;8.30;39.30;;;;;;10458085;28;20613;-80
2023/02/02 01:07:23;;;;;;;3.87;1.93;;;8.30;39.50;;;;;;10459704;28;20640;-80
2023/02/02 01:12:26;;;;;;;5.20;2.33;;;8.30;39.40;;;;;;10458289;28;20232;-80
2023/02/02 01:17:31;;;;;;;4.03;1.87;;;8.30;39.50;;;;;;10451683;28;20229;-76
2023/02/02 01:22:34;;;;;;;5.53;2.17;;;8.30;39.50;;;;;;10454392;28;20232;-77
2023/02/02 01:27:37;;;;;;;7.73;2.00;;;8.20;39.40;;;;;;10449139;28;20699;-76
2023/02/02 01:32:42;;;;;;;5.53;2.00;;;8.20;39.40;;;;;;10447811;28;20220;-77
2023/02/02 01:37:45;;;;;;;5.83;1.97;;;8.20;39.40;;;;;;10447731;28;20701;-77
2023/02/02 01:42:48;;;;;;;7.23;2.07;;;8.20;39.40;;;;;;10451698;28;20244;-79
2023/02/02 01:47:56;;;;;;;3.43;1.73;;;8.10;39.30;;;;;;10446108;28;20229;-78
2023/02/02 01:53:02;;;;;;;4.67;2.13;;;8.10;39.60;;;;;;10448959;28;20274;-78
2023/02/02 01:58:08;;;;;;;3.80;1.77;;;8.00;39.80;;;;;;10449278;28;20224;-78
2023/02/02 02:03:15;;;;;;;5.00;1.97;;;8.00;40.00;;;;;;10448516;28;20225;-78
2023/02/02 02:08:23;;;;;;;4.27;1.70;;;7.90;40.30;;;;;;10446299;28;20228;-78
2023/02/02 02:18:55;;;;;;;2.77;1.70;;;7.90;40.10;;;;;;10445584;28;20232;-76
2023/02/02 02:30:34;;;;;;;4.10;1.60;;;7.80;40.90;;;;;;10447908;28;20227;-78
2023/02/02 02:35:46;;;;;;;4.43;1.90;;;7.80;40.90;;;;;;10397556;28;20225;-76
2023/02/02 02:40:54;;;;;;;3.23;1.70;;;7.80;41.00;;;;;;10449434;28;20820;-75
2023/02/02 02:45:57;;;;;;;5.13;1.80;;;7.80;40.90;;;;;;10449936;28;20739;-76
2023/02/02 02:51:43;;;;;;;4.53;1.93;;;7.80;40.60;;;;;;10449779;28;20228;-75
2023/02/02 02:57:14;;;;;;;5.27;1.93;;;7.80;41.30;;;;;;10449711;28;20259;-75
2023/02/02 03:02:30;;;;;;;4.83;1.57;;;7.80;42.00;;;;;;10447604;28;20279;-75
2023/02/02 03:07:41;;;;;;;5.60;1.93;;;7.80;41.30;;;;;;10443073;28;20251;-76
2023/02/02 03:12:46;;;;;;;4.10;1.60;;;7.80;41.30;;;;;;10443617;28;20233;-76
2023/02/02 03:17:51;;;;;;;4.03;2.00;;;7.80;41.00;;;;;;10444835;28;20226;-76
2023/02/02 03:22:55;;;;;;;4.17;1.63;;;7.70;41.10;;;;;;10446680;28;20232;-76
2023/02/02 03:27:59;;;;;;;2.10;1.50;;;7.70;41.30;;;;;;10444360;28;20221;-76
2023/02/02 03:33:02;;;;;;;2.43;1.43;;;7.70;41.10;;;;;;10408609;28;20218;-76
2023/02/02 03:38:07;;;;;;;4.20;1.90;;;7.70;41.40;;;;;;10423551;28;20221;-76
2023/02/02 03:43:10;;;;;;;4.90;1.63;;;7.70;41.70;;;;;;10423620;28;20225;-76
2023/02/02 03:48:14;;;;;;;3.67;1.73;;;7.70;41.40;;;;;;10435868;28;20220;-76
2023/02/02 03:53:18;;;;;;;4.93;1.70;;;7.70;41.40;;;;;;10445563;28;20232;-76
2023/02/02 03:58:22;;;;;;;3.03;1.73;;;7.70;41.60;;;;;;10446307;28;20784;-76
2023/02/02 04:03:25;;;;;;;2.77;1.47;;;7.70;41.30;;;;;;10444120;28;20236;-76
2023/02/02 04:08:30;;;;;;;4.83;1.67;;;7.70;41.40;;;;;;10445240;28;20225;-74
2023/02/02 04:13:33;;;;;;;1.50;1.33;;;7.70;41.70;;;;;;10443413;28;20604;-75
2023/02/02 04:18:37;;;;;;;2.73;1.53;;;7.80;41.50;;;;;;10444271;28;20592;-75
2023/02/02 04:23:42;;;;;;;2.13;1.60;;;7.70;41.60;;;;;;10442961;28;20315;-75
2023/02/02 04:28:45;;;;;;;4.53;2.00;;;7.70;41.90;;;;;;10442017;28;20233;-75
2023/02/02 04:33:48;;;;;;;3.90;1.60;;;7.70;41.90;;;;;;10446321;28;20232;-75
2023/02/02 04:38:54;;;;;;;3.33;1.67;;;7.60;41.80;;;;;;10450102;28;20225;-75
2023/02/02 04:43:57;;;;;;;2.47;1.40;;;7.60;42.40;;;;;;10446727;28;20214;-75
2023/02/02 04:49:00;;;;;;;3.50;1.50;;;7.50;42.10;;;;;;10447533;28;20217;-75
2023/02/02 04:54:05;;;;;;;3.43;1.70;;;7.50;42.20;;;;;;10448561;28;20239;-75
2023/02/02 04:59:08;;;;;;;2.73;1.50;;;7.50;42.70;;;;;;10448220;28;20604;-75
2023/02/02 05:04:12;;;;;;;3.43;1.70;;;7.40;42.50;;;;;;10449028;28;20252;-75
2023/02/02 05:09:16;;;;;;;2.83;1.50;;;7.40;42.50;;;;;;10439981;28;20320;-75
2023/02/02 05:14:19;;;;;;;5.20;1.93;;;7.40;42.90;;;;;;10441524;28;20233;-75
2023/02/02 05:19:23;;;;;;;3.40;1.80;;;7.40;43.10;;;;;;10440720;28;20236;-75
2023/02/02 05:24:27;;;;;;;3.43;1.73;;;7.40;43.00;;;;;;10444635;28;20232;-76
2023/02/02 05:29:31;;;;;;;2.57;1.60;;;7.40;43.40;;;;;;10444234;28;20255;-75
2023/02/02 05:34:34;;;;;;;3.77;1.73;;;7.50;43.00;;;;;;10438267;28;20229;-75
2023/02/02 05:39:38;;;;;;;3.53;2.00;;;7.50;42.80;;;;;;10440228;28;20256;-75
2023/02/02 05:44:42;;;;;;;3.77;1.90;;;7.50;43.40;;;;;;10442970;28;20229;-78
2023/02/02 05:49:45;;;;;;;4.30;1.83;;;7.50;43.00;;;;;;10442374;28;20239;-78
2023/02/02 05:54:49;;;;;;;4.10;2.60;;;7.50;43.10;;;;;;10440260;28;20224;-75
2023/02/02 05:59:52;;;;;;;3.57;1.90;;;7.50;43.40;;;;;;10438523;28;20228;-75
2023/02/02 06:04:55;;;;;;;2.90;1.80;;;7.50;43.30;;;;;;10438647;28;20366;-76
2023/02/02 06:10:00;;;;;;;5.07;1.70;;;7.50;43.20;;;;;;10445807;28;20228;-75
2023/02/02 06:15:03;;;;;;;3.20;1.60;;;7.50;43.50;;;;;;10432230;28;20236;-76
2023/02/02 06:20:07;;;;;;;3.90;1.70;;;7.60;43.50;;;;;;10433728;28;20229;-74
2023/02/02 06:25:12;;;;;;;3.17;2.00;;;7.60;43.40;;;;;;10434341;28;20221;-77
2023/02/02 06:30:16;;;;;;;2.80;2.10;;;7.70;43.70;;;;;;10451844;23;20225;-72
2023/02/02 06:35:19;;;;;;;3.80;1.90;;;7.70;43.50;;;;;;10441820;28;20577;-72
2023/02/02 06:40:23;;;;;;;3.10;1.93;;;7.70;43.40;;;;;;10447697;28;20270;-72
2023/02/02 06:45:27;;;;;;;4.53;2.03;;;7.70;43.70;;;;;;10446911;28;20237;-72
2023/02/02 06:50:30;;;;;;;4.17;2.00;;;7.70;43.50;;;;;;10446587;28;21735;-72
2023/02/02 06:55:35;;;;;;;4.23;2.03;;;7.80;43.50;;;;;;10447444;28;20272;-73
2023/02/02 07:00:38;;;;;;;3.63;1.60;;;7.80;43.70;;;;;;10442659;28;20221;-73
2023/02/02 07:05:41;;;;;;;2.27;1.63;;;7.80;43.60;;;;;;10447038;28;20225;-72
2023/02/02 07:10:46;;;;;;;2.37;1.50;;;7.80;43.70;;;;;;10440247;28;20777;-70
2023/02/02 07:16:11;;;;;;;4.03;1.70;;;7.90;43.80;;;;;;10474205;28;20267;-70
2023/02/02 07:21:17;;;;;;;2.17;1.27;;;7.90;43.80;;;;;;10479881;28;20338;-72
2023/02/02 07:26:22;;;;;;;5.73;1.80;;;7.90;44.00;;;;;;10478624;28;20228;-70
2023/02/02 07:31:26;;;;;;;2.33;1.60;;;7.90;43.80;;;;;;10485062;28;20232;-71
2023/02/02 07:36:29;;;;;;;2.63;1.57;;;7.90;43.70;;;;;;10485684;28;20236;-71
2023/02/02 07:41:35;;;;;;;4.20;1.90;;;8.00;43.50;;;;;;10486158;28;20227;-72
2023/02/02 07:46:38;;;;;;;3.67;1.60;;;8.00;43.90;;;;;;10486600;28;20252;-73
2023/02/02 07:51:42;;;;;;;3.40;1.70;;;8.00;43.60;;;;;;10487557;28;20728;-74
2023/02/02 07:56:51;;;;;;;2.87;1.70;;;8.00;43.60;;;;;;10484610;28;20319;-73
2023/02/02 08:01:54;;;;;;;1.60;1.50;;;8.00;43.80;;;;;;10485568;28;20223;-72
2023/02/02 08:06:57;;;;;;;2.60;1.57;;;8.00;43.70;;;;;;10483704;28;20232;-72
2023/02/02 08:12:02;;;;;;;3.40;1.70;;;8.00;43.60;;;;;;10496360;28;20926;-72
2023/02/02 08:17:05;;;;;;;2.07;1.33;;;8.10;43.70;;;;;;10492282;28;20235;-72
2023/02/02 08:22:08;;;;;;;2.90;1.60;;;8.10;43.60;;;;;;10492048;28;20228;-72
2023/02/02 08:27:13;;;;;;;3.60;1.77;;;8.10;43.50;;;;;;10492195;28;20235;-71
2023/02/02 08:32:16;;;;;;;3.27;1.50;;;8.10;43.70;;;;;;10491470;28;20221;-72
2023/02/02 08:37:19;;;;;;;2.87;1.50;;;8.20;43.50;;;;;;10493915;28;20263;-72
2023/02/02 08:42:23;;;;;;;5.03;1.70;;;8.20;43.40;;;;;;10492929;28;20780;-70
2023/02/02 08:47:29;;;;;;;2.63;1.60;;;8.30;43.50;;;;;;10491911;28;20236;-72
2023/02/02 08:52:32;;;;;;;1.57;1.30;;;8.30;43.40;;;;;;10494831;28;20231;-70
2023/02/02 08:57:37;;;;;;;2.67;1.57;;;8.40;43.40;;;;;;10508860;22;20233;-72
2023/02/02 09:02:40;;;;;;;2.00;1.40;;;8.40;43.50;;;;;;10441300;28;20229;-72
2023/02/02 09:07:43;;;;;;;1.67;1.40;;;8.40;43.30;;;;;;10432505;28;20233;-72
2023/02/02 09:12:48;;;;;;;2.40;1.60;;;8.40;43.40;;;;;;10441558;28;20801;-78
2023/02/02 09:17:51;;;;;;;2.93;1.40;;;8.50;43.50;;;;;;10445601;28;20225;-77
2023/02/02 09:22:56;;;;;;;2.50;1.40;;;8.50;43.40;;;;;;10454853;28;20221;-77
2023/02/02 09:28:00;;;;;;;1.93;1.10;;;8.50;43.30;;;;;;10442537;28;20606;-78
2023/02/02 09:33:04;;;;;;;2.17;1.20;;;8.50;43.30;;;;;;10443504;28;20239;-77
2023/02/02 09:38:07;;;;;;;2.07;1.50;;;8.60;43.30;;;;;;10441527;28;20244;-77
2023/02/02 09:43:26;;;;;;;2.40;1.90;;;8.60;43.20;;;;;;10449253;28;20225;-77
2023/02/02 09:48:38;;;;;;;2.47;1.93;;;8.60;43.60;;;;;;10442733;28;20716;-78
2023/02/02 09:53:49;;;;;;;2.30;1.60;;;8.70;43.40;;;;;;10448169;28;20720;-78
2023/02/02 09:59:01;;;;;;;1.80;1.20;;;8.70;43.40;;;;;;10440174;28;20220;-78
2023/02/02 10:04:26;;;;;;;1.77;1.40;;;8.70;43.40;;;;;;10443024;28;20321;-78
2023/02/02 10:09:38;;;;;;;2.23;1.40;;;8.60;43.40;;;;;;10442697;28;20257;-78
2023/02/02 10:14:50;;;;;;;2.97;1.53;;;8.70;43.70;;;;;;10452199;28;20229;-78
2023/02/02 10:19:57;;;;;;;2.33;1.40;;;8.60;44.00;;;;;;10437378;28;20229;-78
2023/02/02 10:25:00;;;;;;;3.40;1.70;;;8.60;43.80;;;;;;10443061;28;20214;-78
2023/02/02 10:30:14;;;;;;;3.27;1.37;;;8.60;43.80;;;;;;10441650;28;20218;-77
2023/02/02 10:35:29;;;;;;;3.33;1.47;;;8.60;44.20;;;;;;10428264;28;20225;-71
2023/02/02 10:40:43;;;;;;;2.47;1.60;;;8.60;44.10;;;;;;10430341;28;20842;-70
2023/02/02 10:45:50;;;;;;;3.03;1.63;;;8.60;44.40;;;;;;10434308;28;20236;-70
2023/02/02 10:50:57;;;;;;;3.13;1.43;;;8.70;44.20;;;;;;10430501;28;20232;-70
2023/02/02 10:56:05;;;;;;;2.80;1.53;;;8.70;43.90;;;;;;10428154;28;20233;-70
2023/02/02 11:01:10;;;;;;;1.93;1.43;;;8.70;44.10;;;;;;10428569;28;20704;-70
2023/02/02 11:11:54;;;;;;;4.33;1.83;;;8.70;43.90;;;;;;10300090;28;20227;-70
2023/02/02 11:17:05;;;;;;;1.80;1.27;;;8.70;43.90;;;;;;10410053;28;20228;-70
2023/02/02 11:22:25;;;;;;;2.57;2.30;;;8.70;44.00;;;;;;10434121;28;20228;-70
2023/02/02 11:27:32;;;;;;;1.90;1.40;;;8.70;44.90;;;;;;10434413;28;20231;-70
2023/02/02 11:32:37;;;;;;;1.77;1.30;;;8.70;44.60;;;;;;10436095;28;20597;-70
2023/02/02 11:37:56;;;;;;;2.67;1.47;;;8.70;44.60;;;;;;10429276;28;20229;-70
2023/02/02 11:43:02;;;;;;;2.20;1.63;;;8.60;44.90;;;;;;10423127;28;21044;-70
2023/02/02 11:48:15;;;;;;;3.03;2.10;;;8.60;44.70;;;;;;10428093;28;20223;-71
2023/02/02 11:53:23;;;;;;;4.47;2.30;;;8.60;45.30;;;;;;10431566;28;20236;-71
2023/02/02 11:58:28;;;;;;;3.70;2.23;;;8.60;45.30;;;;;;10425970;28;20238;-71
2023/02/02 12:03:38;;;;;;;2.77;2.00;;;8.50;44.80;;;;;;10430736;28;20282;-70
2023/02/02 12:08:42;;;;;;;4.37;2.93;;;8.60;45.50;;;;;;10426713;28;20303;-71
2023/02/02 12:13:59;;;;;;;6.60;4.27;;;8.60;44.80;;;;;;10433525;28;20307;-71
2023/02/02 12:19:22;;;;;;;3.07;2.23;;;8.60;45.70;;;;;;10424799;28;20227;-71
2023/02/02 12:24:31;;;;;;;2.63;1.90;;;8.50;45.60;;;;;;10433301;28;20233;-71
2023/02/02 12:30:04;;;;;;;1.90;1.67;;;8.60;45.70;;;;;;10436625;28;20330;-71
2023/02/02 12:35:28;;;;;;;2.47;1.90;;;8.50;45.60;;;;;;10428647;28;20226;-72
2023/02/02 12:40:46;;;;;;;2.47;2.10;;;8.50;45.60;;;;;;10427558;28;20328;-72
2023/02/02 12:46:09;;;;;;;2.17;1.53;;;8.60;45.70;;;;;;10429800;28;20220;-72
2023/02/02 12:51:27;;;;;;;2.93;2.00;;;8.60;46.20;;;;;;10433076;28;20225;-71
2023/02/02 12:56:38;;;;;;;2.03;1.70;;;8.60;46.00;;;;;;10433317;28;20240;-72
2023/02/02 13:01:53;;;;;;;1.97;1.20;;;8.60;45.70;;;;;;10432381;28;20237;-72
2023/02/02 13:07:17;;;;;;;1.93;1.17;;;8.60;45.90;;;;;;10435500;28;20304;-71
2023/02/02 13:12:23;;;;;;;3.37;1.50;;;8.60;46.00;;;;;;10438223;28;20278;-72
2023/02/02 13:17:32;;;;;;;2.50;1.60;;;8.60;45.70;;;;;;10437775;28;20228;-72
2023/02/02 13:22:42;;;;;;;3.03;1.63;;;8.70;45.50;;;;;;10438866;28;20228;-72
2023/02/02 13:27:48;;;;;;;3.43;1.60;;;8.70;45.60;;;;;;10437665;28;20244;-72
2023/02/02 13:32:53;;;;;;;2.13;1.47;;;8.70;45.50;;;;;;10430519;28;20232;-72
2023/02/02 13:38:05;;;;;;;1.10;1.00;;;8.70;45.40;;;;;;10439269;28;20225;-72
2023/02/02 13:43:21;;;;;;;2.33;1.10;;;8.70;45.80;;;;;;10434999;28;20220;-72
2023/02/02 13:48:35;;;;;;;1.63;0.90;;;8.70;45.80;;;;;;10444320;28;20583;-72
2023/02/02 13:53:57;;;;;;;1.37;0.90;;;8.70;45.60;;;;;;10440208;28;20228;-71
2023/02/02 13:59:15;;;;;;;2.03;0.97;;;8.60;45.70;;;;;;10440521;28;20233;-71
2023/02/02 14:04:23;;;;;;;1.90;1.30;;;8.60;45.80;;;;;;10436546;28;20217;-72
2023/02/02 14:09:29;;;;;;;2.27;1.80;;;8.60;45.70;;;;;;10433306;28;20241;-71
2023/02/02 14:14:35;;;;;;;1.33;1.23;;;8.60;45.70;;;;;;10425764;28;20237;-72
2023/02/02 14:19:51;;;;;;;2.37;1.90;;;8.60;45.70;;;;;;10434027;28;20217;-72
2023/02/02 14:24:56;;;;;;;1.50;1.33;;;8.60;46.10;;;;;;10432502;28;20313;-71
2023/02/02 14:30:00;;;;;;;1.40;1.30;;;8.60;45.60;;;;;;10434237;28;20243;-71
2023/02/02 14:35:36;;;;;;;1.43;1.30;;;8.60;45.50;;;;;;10432125;28;20592;-72
2023/02/02 14:40:54;;;;;;;1.33;1.20;;;8.60;45.90;;;;;;10435558;28;20229;-71
2023/02/02 14:46:22;;;;;;;1.17;1.07;;;8.60;46.00;;;;;;10438362;28;20217;-71
2023/02/02 14:51:28;;;;;;;1.50;1.20;;;8.60;45.90;;;;;;10428406;28;20229;-71
2023/02/02 14:56:48;;;;;;;1.67;1.50;;;8.60;45.70;;;;;;10434942;28;20818;-71
2023/02/02 15:02:06;;;;;;;1.30;1.20;;;8.60;46.40;;;;;;10436035;28;20237;-71
2023/02/02 15:07:50;;;;;;;1.30;1.20;;;8.60;45.90;;;;;;10434074;28;20228;-71
2023/02/02 15:13:06;;;;;;;1.60;1.50;;;8.60;46.30;;;;;;10440623;28;20224;-70
2023/02/02 15:18:15;;;;;;;1.30;1.00;;;8.60;46.50;;;;;;10435372;28;20231;-70
2023/02/02 15:23:27;;;;;;;1.37;1.27;;;8.60;46.00;;;;;;10433557;28;20221;-71
2023/02/02 15:28:42;;;;;;;1.70;1.10;;;8.60;46.00;;;;;;10433525;28;20229;-71
2023/02/02 15:33:48;;;;;;;1.40;1.30;;;8.60;45.90;;;;;;10433934;28;20233;-71
2023/02/02 15:38:53;;;;;;;1.50;1.40;;;8.60;45.70;;;;;;10434476;28;20232;-72
2023/02/02 15:43:58;;;;;;;1.60;1.50;;;8.60;45.70;;;;;;10436491;28;20220;-70
2023/02/02 15:49:27;;;;;;;1.87;1.13;;;8.70;45.80;;;;;;10430487;28;20233;-70
2023/02/02 15:54:37;;;;;;;1.60;1.23;;;8.70;46.20;;;;;;10434255;28;20217;-70
2023/02/02 15:59:44;;;;;;;2.13;1.50;;;8.70;45.70;;;;;;10432713;28;20235;-70
2023/02/02 16:04:48;;;;;;;1.70;1.20;;;8.60;45.70;;;;;;10436343;28;20233;-71
2023/02/02 16:09:51;;;;;;;1.87;1.67;;;8.60;45.60;;;;;;10428606;28;20616;-72
2023/02/02 16:14:55;;;;;;;1.27;1.00;;;8.60;45.70;;;;;;10432916;28;20232;-70
2023/02/02 16:20:03;;;;;;;1.90;1.10;;;8.60;45.90;;;;;;10428925;28;20237;-72
2023/02/02 16:25:09;;;;;;;1.67;1.30;;;8.60;45.90;;;;;;10431411;28;20217;-70
2023/02/02 16:30:23;;;;;;;2.67;1.40;;;8.60;45.80;;;;;;10430946;28;20240;-70
2023/02/02 16:35:35;;;;;;;1.30;1.30;;;8.60;46.20;;;;;;10441488;28;20236;-72
2023/02/02 16:40:38;;;;;;;2.03;1.30;;;8.60;46.30;;;;;;10442767;28;20225;-70
2023/02/02 16:45:46;;;;;;;1.87;1.40;;;8.60;45.70;;;;;;10434335;28;20249;-70
2023/02/02 16:51:08;;;;;;;1.63;1.50;;;8.60;46.70;;;;;;10440434;28;20259;-70
2023/02/02 16:56:22;;;;;;;2.17;1.37;;;8.60;46.90;;;;;;10439807;28;20227;-70
2023/02/02 17:01:37;;;;;;;2.10;1.70;;;8.60;46.60;;;;;;10443249;28;20739;-70
2023/02/02 17:06:40;;;;;;;1.60;1.50;;;8.70;46.70;;;;;;10440888;28;20232;-71
2023/02/02 17:11:57;;;;;;;3.07;1.37;;;8.60;45.80;;;;;;10436909;28;20318;-71
2023/02/02 17:17:04;;;;;;;1.63;1.53;;;8.60;45.80;;;;;;10438490;28;20725;-71
2023/02/02 17:22:07;;;;;;;2.47;1.53;;;8.60;46.30;;;;;;10434790;28;20722;-72
2023/02/02 17:27:16;;;;;;;3.47;2.30;;;8.60;46.00;;;;;;10434630;28;20231;-72
2023/02/02 17:32:20;;;;;;;2.27;1.87;;;8.60;46.40;;;;;;10440639;28;20226;-71
2023/02/02 17:37:24;;;;;;;2.63;1.80;;;8.60;46.30;;;;;;10437513;28;20241;-71
2023/02/02 17:42:29;;;;;;;2.67;1.90;;;8.60;45.90;;;;;;10439874;28;20697;-71
2023/02/02 17:47:36;;;;;;;3.50;2.00;;;8.70;46.10;;;;;;10433114;28;21169;-71
2023/02/02 17:52:40;;;;;;;2.83;2.40;;;8.70;46.20;;;;;;10443648;28;20228;-71
2023/02/02 17:57:43;;;;;;;3.60;2.10;;;8.70;46.20;;;;;;10434405;28;20248;-71
2023/02/02 18:02:53;;;;;;;2.03;1.83;;;8.70;45.80;;;;;;10445483;28;20223;-72
2023/02/02 18:07:58;;;;;;;4.87;2.37;;;8.70;46.20;;;;;;10439386;28;20236;-71
2023/02/02 18:13:02;;;;;;;3.17;2.30;;;8.70;46.00;;;;;;10446075;28;20216;-72
2023/02/02 18:18:06;;;;;;;5.67;2.40;;;8.70;46.00;;;;;;10443618;28;20236;-71
2023/02/02 18:23:18;;;;;;;2.30;2.00;;;8.70;46.30;;;;;;10441161;28;20240;-71
2023/02/02 18:28:21;;;;;;;3.40;2.10;;;8.70;46.70;;;;;;10448517;28;20575;-71
2023/02/02 18:33:26;;;;;;;4.43;2.37;;;8.70;46.00;;;;;;10447098;28;20575;-71
2023/02/02 18:38:29;;;;;;;3.30;2.00;;;8.70;46.30;;;;;;10442830;28;20237;-71
2023/02/02 18:43:32;;;;;;;3.07;1.77;;;8.70;46.00;;;;;;10446457;28;20235;-71
2023/02/02 18:48:37;;;;;;;4.10;1.90;;;8.70;46.00;;;;;;10437594;28;20225;-71
2023/02/02 18:53:40;;;;;;;2.00;1.80;;;8.70;46.30;;;;;;10446334;28;20238;-71
2023/02/02 18:58:44;;;;;;;3.77;2.00;;;8.70;46.10;;;;;;10451756;28;20216;-71
2023/02/02 19:03:50;;;;;;;3.60;1.83;;;8.70;46.20;;;;;;10430287;28;20237;-71
2023/02/02 19:08:54;;;;;;;4.13;2.10;;;8.70;46.40;;;;;;10438780;28;20705;-76
2023/02/02 19:14:00;;;;;;;2.50;2.30;;;8.70;46.00;;;;;;10428015;28;20275;-76
2023/02/02 19:19:11;;;;;;;2.77;2.10;;;8.70;46.10;;;;;;10426034;28;20232;-73
2023/02/02 19:24:17;;;;;;;3.80;2.00;;;8.70;46.80;;;;;;10412073;28;20670;-73
2023/02/02 19:29:22;;;;;;;2.83;2.10;;;8.70;45.80;;;;;;10415364;28;20254;-73
2023/02/02 19:34:27;;;;;;;3.23;1.90;;;8.70;46.20;;;;;;10428461;28;20229;-73
2023/02/02 19:39:31;;;;;;;2.33;2.00;;;8.70;46.30;;;;;;10426991;28;20930;-73
2023/02/02 19:44:34;;;;;;;3.13;2.33;;;8.70;46.30;;;;;;10427891;28;20592;-73
2023/02/02 19:49:39;;;;;;;3.13;2.17;;;8.70;46.20;;;;;;10428523;28;20635;-72
2023/02/02 19:54:43;;;;;;;2.30;1.90;;;8.70;46.40;;;;;;10426270;28;20216;-73
2023/02/02 19:59:48;;;;;;;2.20;2.00;;;8.70;46.40;;;;;;10427455;28;20256;-73
2023/02/02 20:05:01;;;;;;;2.43;1.90;;;8.70;46.30;;;;;;10429163;28;20575;-73
2023/02/02 20:10:17;;;;;;;2.20;2.00;;;8.60;46.70;;;;;;10423600;28;20236;-73
2023/02/02 20:15:27;;;;;;;2.50;2.13;;;8.60;46.80;;;;;;10433989;28;20232;-73
2023/02/02 20:20:36;;;;;;;2.27;2.07;;;8.60;46.70;;;;;;10424630;28;20569;-72
2023/02/02 20:25:43;;;;;;;2.37;2.10;;;8.60;46.60;;;;;;10437926;28;20643;-72
2023/02/02 20:30:49;;;;;;;2.33;1.90;;;8.60;46.50;;;;;;10434743;28;20240;-73
2023/02/02 20:35:54;;;;;;;2.30;2.00;;;8.70;46.30;;;;;;10439385;28;20223;-72
2023/02/02 20:40:59;;;;;;;2.77;2.13;;;8.70;46.50;;;;;;10441014;28;20225;-72
2023/02/02 20:46:02;;;;;;;3.43;2.30;;;8.70;46.20;;;;;;10435413;28;20214;-73
2023/02/02 20:51:07;;;;;;;2.90;2.00;;;8.70;46.20;;;;;;10438372;28;20318;-72
2023/02/02 20:56:10;;;;;;;1.93;1.83;;;8.70;46.50;;;;;;10443466;28;20217;-72
2023/02/02 21:01:14;;;;;;;2.43;2.20;;;8.70;46.40;;;;;;10441348;28;20326;-72
2023/02/02 21:06:18;;;;;;;2.87;2.30;;;8.70;46.40;;;;;;10440484;28;20218;-72
2023/02/02 21:11:21;;;;;;;2.57;2.03;;;8.70;46.50;;;;;;10437347;28;20237;-71
2023/02/02 21:16:25;;;;;;;2.57;2.37;;;8.70;46.30;;;;;;10440823;28;20251;-71
2023/02/02 21:21:30;;;;;;;2.27;2.00;;;8.70;46.40;;;;;;10437376;28;20225;-71
2023/02/02 21:26:33;;;;;;;2.37;2.07;;;8.70;46.50;;;;;;10432664;28;20267;-72
2023/02/02 21:31:38;;;;;;;2.47;2.20;;;8.70;46.30;;;;;;10439501;28;20258;-71
2023/02/02 21:36:47;;;;;;;2.33;1.90;;;8.70;46.40;;;;;;10433116;28;20229;-71
2023/02/02 21:41:54;;;;;;;3.30;2.03;;;8.70;46.50;;;;;;10434032;28;20224;-71
2023/02/02 21:46:57;;;;;;;3.23;2.10;;;8.70;46.30;;;;;;10430407;28;20220;-71
2023/02/02 21:52:12;;;;;;;4.00;2.20;;;8.70;46.20;;;;;;10428755;28;20235;-70
2023/02/02 21:57:18;;;;;;;2.40;1.83;;;8.70;47.50;;;;;;10433187;28;20228;-71
2023/02/02 22:02:37;;;;;;;1.63;1.53;;;8.70;46.40;;;;;;10427327;28;20227;-71
2023/02/02 22:07:46;;;;;;;2.43;1.90;;;8.70;46.70;;;;;;10427700;28;20783;-71
2023/02/02 22:12:49;;;;;;;3.37;2.07;;;8.80;46.40;;;;;;10429300;28;20236;-71
2023/02/02 22:17:52;;;;;;;2.17;1.90;;;8.80;46.20;;;;;;10429682;28;20227;-71
2023/02/02 22:22:56;;;;;;;2.00;1.80;;;8.80;46.20;;;;;;10429238;28;20228;-71
2023/02/02 22:28:04;;;;;;;2.50;1.80;;;8.70;46.20;;;;;;10432886;28;20248;-72
2023/02/02 22:33:09;;;;;;;1.97;1.70;;;8.70;46.20;;;;;;10428902;28;20217;-71
2023/02/02 22:38:17;;;;;;;2.50;1.73;;;8.80;46.10;;;;;;10440622;28;20569;-71
2023/02/02 22:43:21;;;;;;;1.90;1.70;;;8.70;46.30;;;;;;10435685;28;20716;-73
2023/02/02 22:48:24;;;;;;;2.60;2.00;;;8.70;46.20;;;;;;10438245;28;20229;-71
2023/02/02 22:53:29;;;;;;;1.70;1.60;;;8.70;46.20;;;;;;10434395;28;20231;-73
2023/02/02 22:58:32;;;;;;;2.30;1.83;;;8.70;46.40;;;;;;10434173;28;20248;-70
2023/02/02 23:03:35;;;;;;;2.73;1.80;;;8.70;46.20;;;;;;10436226;28;20232;-70
2023/02/02 23:08:40;;;;;;;2.87;1.70;;;8.60;46.30;;;;;;10424600;28;20319;-70
2023/02/02 23:13:43;;;;;;;2.30;1.80;;;8.60;46.40;;;;;;10428030;28;20910;-70
2023/02/02 23:18:46;;;;;;;1.70;1.60;;;8.60;46.30;;;;;;10439094;28;20232;-70
2023/02/02 23:23:51;;;;;;;2.10;1.90;;;8.60;46.40;;;;;;10425911;28;20270;-70
2023/02/02 23:28:54;;;;;;;2.13;1.90;;;8.60;46.50;;;;;;10428523;28;20645;-71
2023/02/02 23:33:58;;;;;;;1.93;1.83;;;8.60;46.40;;;;;;10431504;28;20228;-72
2023/02/02 23:39:02;;;;;;;2.53;1.90;;;8.50;46.30;;;;;;10427199;28;20697;-73
2023/02/02 23:44:05;;;;;;;1.70;1.60;;;8.50;46.30;;;;;;10430572;28;20229;-73
2023/02/02 23:49:09;;;;;;;1.83;1.60;;;8.60;46.30;;;;;;10429551;28;20594;-73
2023/02/02 23:54:14;;;;;;;1.70;1.60;;;8.50;46.20;;;;;;10430829;28;20226;-70
2023/02/02 23:59:17;;;;;;;2.80;1.37;;;8.60;46.40;;;;;;10430269;28;20287;-72
